sensor_id;sensor_type;location;lat;lon;timestamp;temperature;humidity
33655;DHT22;19997;51.274;22.506;2023-05-16T00:01:35;13.90;99.90
33655;DHT22;19997;51.274;22.506;2023-05-16T00:04:02;13.90;99.90
33655;DHT22;19997;51.274;22.506;2023-05-16T00:06:30;13.80;99.90
33655;DHT22;19997;51.274;22.506;2023-05-16T00:08:58;13.80;99.90
33655;DHT22;19997;51.274;22.506;2023-05-16T00:11:25;13.70;99.90
33655;DHT22;19997;51.274;22.506;2023-05-16T00:13:53;13.70;99.90
33655;DHT22;19997;51.274;22.506;2023-05-16T00:16:21;13.70;99.90
33655;DHT22;19997;51.274;22.506;2023-05-16T00:18:50;13.60;99.90
33655;DHT22;19997;51.274;22.506;2023-05-16T00:21:18;13.60;99.90
33655;DHT22;19997;51.274;22.506;2023-05-16T00:23:45;13.60;99.90
33655;DHT22;19997;51.274;22.506;2023-05-16T00:26:12;13.50;99.90
33655;DHT22;19997;51.274;22.506;2023-05-16T00:28:41;13.50;99.90
33655;DHT22;19997;51.274;22.506;2023-05-16T00:31:08;13.50;99.90
33655;DHT22;19997;51.274;22.506;2023-05-16T00:33:36;13.50;99.90
33655;DHT22;19997;51.274;22.506;2023-05-16T00:36:04;13.50;99.90
33655;DHT22;19997;51.274;22.506;2023-05-16T00:38:31;13.40;99.90
33655;DHT22;19997;51.274;22.506;2023-05-16T00:40:58;13.40;99.90
33655;DHT22;19997;51.274;22.506;2023-05-16T00:43:26;13.30;99.90
33655;DHT22;19997;51.274;22.506;2023-05-16T00:45:53;13.30;99.90
33655;DHT22;19997;51.274;22.506;2023-05-16T00:48:20;13.30;99.90
33655;DHT22;19997;51.274;22.506;2023-05-16T00:50:48;13.20;99.90
33655;DHT22;19997;51.274;22.506;2023-05-16T00:53:17;13.20;99.90
33655;DHT22;19997;51.274;22.506;2023-05-16T00:55:44;13.20;99.90
33655;DHT22;19997;51.274;22.506;2023-05-16T00:58:13;13.10;99.90
33655;DHT22;19997;51.274;22.506;2023-05-16T01:00:41;13.10;99.90
33655;DHT22;19997;51.274;22.506;2023-05-16T01:03:08;13.10;99.90
33655;DHT22;19997;51.274;22.506;2023-05-16T01:05:37;13.00;99.90
33655;DHT22;19997;51.274;22.506;2023-05-16T01:08:06;13.00;99.90
33655;DHT22;19997;51.274;22.506;2023-05-16T01:10:38;13.00;99.90
33655;DHT22;19997;51.274;22.506;2023-05-16T01:13:14;12.90;99.90
33655;DHT22;19997;51.274;22.506;2023-05-16T01:15:47;12.90;99.90
33655;DHT22;19997;51.274;22.506;2023-05-16T01:18:22;12.90;99.90
33655;DHT22;19997;51.274;22.506;2023-05-16T01:20:55;12.80;99.90
33655;DHT22;19997;51.274;22.506;2023-05-16T01:23:37;12.80;99.90
33655;DHT22;19997;51.274;22.506;2023-05-16T01:26:27;12.80;99.90
33655;DHT22;19997;51.274;22.506;2023-05-16T01:28:55;12.70;99.90
33655;DHT22;19997;51.274;22.506;2023-05-16T01:31:23;12.70;99.90
33655;DHT22;19997;51.274;22.506;2023-05-16T01:33:53;12.70;99.90
33655;DHT22;19997;51.274;22.506;2023-05-16T01:36:24;12.60;99.90
33655;DHT22;19997;51.274;22.506;2023-05-16T01:39:00;12.60;99.90
33655;DHT22;19997;51.274;22.506;2023-05-16T01:41:35;12.60;99.90
33655;DHT22;19997;51.274;22.506;2023-05-16T01:44:10;12.60;99.90
33655;DHT22;19997;51.274;22.506;2023-05-16T01:46:43;12.60;99.90
33655;DHT22;19997;51.274;22.506;2023-05-16T01:49:15;12.50;99.90
33655;DHT22;19997;51.274;22.506;2023-05-16T01:51:48;12.50;99.90
33655;DHT22;19997;51.274;22.506;2023-05-16T01:54:18;12.50;99.90
33655;DHT22;19997;51.274;22.506;2023-05-16T01:56:51;12.50;99.90
33655;DHT22;19997;51.274;22.506;2023-05-16T01:59:19;12.40;99.90
33655;DHT22;19997;51.274;22.506;2023-05-16T02:01:47;12.40;99.90
33655;DHT22;19997;51.274;22.506;2023-05-16T02:04:14;12.30;99.90
33655;DHT22;19997;51.274;22.506;2023-05-16T02:06:41;12.30;99.90
33655;DHT22;19997;51.274;22.506;2023-05-16T02:09:09;12.30;99.90
33655;DHT22;19997;51.274;22.506;2023-05-16T02:11:39;12.30;99.90
33655;DHT22;19997;51.274;22.506;2023-05-16T02:14:08;12.30;99.90
33655;DHT22;19997;51.274;22.506;2023-05-16T02:16:35;12.20;99.90
33655;DHT22;19997;51.274;22.506;2023-05-16T02:19:03;12.20;99.90
33655;DHT22;19997;51.274;22.506;2023-05-16T02:21:32;12.20;99.90
33655;DHT22;19997;51.274;22.506;2023-05-16T02:23:59;12.10;99.90
33655;DHT22;19997;51.274;22.506;2023-05-16T02:26:27;12.10;99.90
33655;DHT22;19997;51.274;22.506;2023-05-16T02:28:54;12.10;99.90
33655;DHT22;19997;51.274;22.506;2023-05-16T02:31:29;12.10;99.90
33655;DHT22;19997;51.274;22.506;2023-05-16T02:33:56;12.00;99.90
33655;DHT22;19997;51.274;22.506;2023-05-16T02:36:24;12.00;99.90
33655;DHT22;19997;51.274;22.506;2023-05-16T02:38:51;12.00;99.90
33655;DHT22;19997;51.274;22.506;2023-05-16T02:41:21;11.90;99.90
33655;DHT22;19997;51.274;22.506;2023-05-16T02:43:51;11.90;99.90
33655;DHT22;19997;51.274;22.506;2023-05-16T02:46:22;11.90;99.90
33655;DHT22;19997;51.274;22.506;2023-05-16T02:48:51;11.90;99.90
33655;DHT22;19997;51.274;22.506;2023-05-16T02:51:19;11.90;99.90
33655;DHT22;19997;51.274;22.506;2023-05-16T02:53:47;11.90;99.90
33655;DHT22;19997;51.274;22.506;2023-05-16T02:56:14;11.90;99.90
33655;DHT22;19997;51.274;22.506;2023-05-16T02:58:42;11.90;99.90
33655;DHT22;19997;51.274;22.506;2023-05-16T03:01:09;11.90;99.90
33655;DHT22;19997;51.274;22.506;2023-05-16T03:03:36;11.90;99.90
33655;DHT22;19997;51.274;22.506;2023-05-16T03:06:05;11.80;99.90
33655;DHT22;19997;51.274;22.506;2023-05-16T03:08:32;11.80;99.90
33655;DHT22;19997;51.274;22.506;2023-05-16T03:11:01;11.80;99.90
33655;DHT22;19997;51.274;22.506;2023-05-16T03:13:28;11.80;99.90
33655;DHT22;19997;51.274;22.506;2023-05-16T03:15:58;11.80;99.90
33655;DHT22;19997;51.274;22.506;2023-05-16T03:18:25;11.80;99.90
33655;DHT22;19997;51.274;22.506;2023-05-16T03:20:52;11.80;99.90
33655;DHT22;19997;51.274;22.506;2023-05-16T03:23:21;11.80;99.90
33655;DHT22;19997;51.274;22.506;2023-05-16T03:25:48;11.80;99.90
33655;DHT22;19997;51.274;22.506;2023-05-16T03:28:19;11.80;99.90
33655;DHT22;19997;51.274;22.506;2023-05-16T03:30:47;11.80;99.90
33655;DHT22;19997;51.274;22.506;2023-05-16T03:33:14;11.90;99.90
33655;DHT22;19997;51.274;22.506;2023-05-16T03:35:41;11.90;99.90
33655;DHT22;19997;51.274;22.506;2023-05-16T03:38:09;11.90;99.90
33655;DHT22;19997;51.274;22.506;2023-05-16T03:40:37;11.90;99.90
33655;DHT22;19997;51.274;22.506;2023-05-16T03:43:04;11.90;99.90
33655;DHT22;19997;51.274;22.506;2023-05-16T03:45:31;12.00;99.90
33655;DHT22;19997;51.274;22.506;2023-05-16T03:47:58;12.00;99.90
33655;DHT22;19997;51.274;22.506;2023-05-16T03:50:26;12.00;99.90
33655;DHT22;19997;51.274;22.506;2023-05-16T03:52:53;12.00;99.90
33655;DHT22;19997;51.274;22.506;2023-05-16T03:55:20;12.00;99.90
33655;DHT22;19997;51.274;22.506;2023-05-16T03:57:49;12.10;99.90
33655;DHT22;19997;51.274;22.506;2023-05-16T04:00:17;12.10;99.90
33655;DHT22;19997;51.274;22.506;2023-05-16T04:02:44;12.10;99.90
33655;DHT22;19997;51.274;22.506;2023-05-16T04:05:11;12.20;99.90
33655;DHT22;19997;51.274;22.506;2023-05-16T04:07:39;12.20;99.90
33655;DHT22;19997;51.274;22.506;2023-05-16T04:10:07;12.20;99.90
33655;DHT22;19997;51.274;22.506;2023-05-16T04:12:35;12.20;99.90
33655;DHT22;19997;51.274;22.506;2023-05-16T04:15:04;12.30;99.90
33655;DHT22;19997;51.274;22.506;2023-05-16T04:17:32;12.30;99.90
33655;DHT22;19997;51.274;22.506;2023-05-16T04:19:59;12.30;99.90
33655;DHT22;19997;51.274;22.506;2023-05-16T04:22:26;12.40;99.90
33655;DHT22;19997;51.274;22.506;2023-05-16T04:24:56;12.40;99.90
33655;DHT22;19997;51.274;22.506;2023-05-16T04:27:23;12.50;99.90
33655;DHT22;19997;51.274;22.506;2023-05-16T04:29:51;12.50;99.90
33655;DHT22;19997;51.274;22.506;2023-05-16T04:32:20;12.50;99.90
33655;DHT22;19997;51.274;22.506;2023-05-16T04:34:48;12.60;99.90
33655;DHT22;19997;51.274;22.506;2023-05-16T04:37:17;12.70;99.90
33655;DHT22;19997;51.274;22.506;2023-05-16T04:39:45;12.80;99.90
33655;DHT22;19997;51.274;22.506;2023-05-16T04:42:12;12.80;99.90
33655;DHT22;19997;51.274;22.506;2023-05-16T04:44:39;12.90;99.90
33655;DHT22;19997;51.274;22.506;2023-05-16T04:47:07;12.90;99.90
33655;DHT22;19997;51.274;22.506;2023-05-16T04:49:40;12.90;99.90
33655;DHT22;19997;51.274;22.506;2023-05-16T04:52:08;13.00;99.90
33655;DHT22;19997;51.274;22.506;2023-05-16T04:54:37;13.10;99.90
33655;DHT22;19997;51.274;22.506;2023-05-16T04:57:07;13.10;99.90
33655;DHT22;19997;51.274;22.506;2023-05-16T04:59:34;13.20;99.90
33655;DHT22;19997;51.274;22.506;2023-05-16T05:02:03;13.30;99.90
33655;DHT22;19997;51.274;22.506;2023-05-16T05:04:31;13.30;99.90
33655;DHT22;19997;51.274;22.506;2023-05-16T05:06:59;13.40;99.90
33655;DHT22;19997;51.274;22.506;2023-05-16T05:09:26;13.50;99.90
33655;DHT22;19997;51.274;22.506;2023-05-16T05:11:53;13.50;99.90
33655;DHT22;19997;51.274;22.506;2023-05-16T05:14:21;13.60;99.90
33655;DHT22;19997;51.274;22.506;2023-05-16T05:16:49;13.70;99.90
33655;DHT22;19997;51.274;22.506;2023-05-16T05:19:16;13.80;99.90
33655;DHT22;19997;51.274;22.506;2023-05-16T05:21:43;13.80;99.90
33655;DHT22;19997;51.274;22.506;2023-05-16T05:24:11;13.90;99.90
33655;DHT22;19997;51.274;22.506;2023-05-16T05:26:38;14.00;99.90
33655;DHT22;19997;51.274;22.506;2023-05-16T05:29:05;14.10;99.90
33655;DHT22;19997;51.274;22.506;2023-05-16T05:31:32;14.10;99.90
33655;DHT22;19997;51.274;22.506;2023-05-16T05:33:59;14.20;99.90
33655;DHT22;19997;51.274;22.506;2023-05-16T05:36:26;14.30;99.90
33655;DHT22;19997;51.274;22.506;2023-05-16T05:38:53;14.40;99.90
33655;DHT22;19997;51.274;22.506;2023-05-16T05:41:22;14.50;99.90
33655;DHT22;19997;51.274;22.506;2023-05-16T05:43:49;14.60;99.90
33655;DHT22;19997;51.274;22.506;2023-05-16T05:46:16;14.60;99.90
33655;DHT22;19997;51.274;22.506;2023-05-16T05:48:43;14.70;99.90
33655;DHT22;19997;51.274;22.506;2023-05-16T05:51:10;14.70;99.90
33655;DHT22;19997;51.274;22.506;2023-05-16T05:53:39;14.80;99.90
33655;DHT22;19997;51.274;22.506;2023-05-16T05:56:06;14.90;99.90
33655;DHT22;19997;51.274;22.506;2023-05-16T05:58:34;15.00;99.90
33655;DHT22;19997;51.274;22.506;2023-05-16T06:01:01;15.00;99.90
33655;DHT22;19997;51.274;22.506;2023-05-16T06:03:29;15.00;99.90
33655;DHT22;19997;51.274;22.506;2023-05-16T06:05:56;15.20;99.90
33655;DHT22;19997;51.274;22.506;2023-05-16T06:08:23;15.30;99.90
33655;DHT22;19997;51.274;22.506;2023-05-16T06:10:51;15.40;99.90
33655;DHT22;19997;51.274;22.506;2023-05-16T06:13:19;15.50;99.90
33655;DHT22;19997;51.274;22.506;2023-05-16T06:15:50;15.60;99.90
33655;DHT22;19997;51.274;22.506;2023-05-16T06:18:17;15.70;99.90
33655;DHT22;19997;51.274;22.506;2023-05-16T06:20:44;15.70;99.90
33655;DHT22;19997;51.274;22.506;2023-05-16T06:23:11;15.80;99.90
33655;DHT22;19997;51.274;22.506;2023-05-16T06:25:38;15.80;99.90
33655;DHT22;19997;51.274;22.506;2023-05-16T06:28:07;15.90;99.90
33655;DHT22;19997;51.274;22.506;2023-05-16T06:30:34;16.00;99.90
33655;DHT22;19997;51.274;22.506;2023-05-16T06:33:02;16.00;99.90
33655;DHT22;19997;51.274;22.506;2023-05-16T06:35:30;16.10;99.90
33655;DHT22;19997;51.274;22.506;2023-05-16T06:37:57;16.20;99.90
33655;DHT22;19997;51.274;22.506;2023-05-16T06:40:24;16.30;99.90
33655;DHT22;19997;51.274;22.506;2023-05-16T06:42:51;16.40;99.90
33655;DHT22;19997;51.274;22.506;2023-05-16T06:45:18;16.50;99.90
33655;DHT22;19997;51.274;22.506;2023-05-16T06:47:45;16.60;99.90
33655;DHT22;19997;51.274;22.506;2023-05-16T06:50:13;16.60;99.30
33655;DHT22;19997;51.274;22.506;2023-05-16T06:52:40;16.60;96.60
33655;DHT22;19997;51.274;22.506;2023-05-16T06:55:08;16.60;96.20
33655;DHT22;19997;51.274;22.506;2023-05-16T06:57:36;16.60;96.50
33655;DHT22;19997;51.274;22.506;2023-05-16T07:00:03;16.70;96.60
33655;DHT22;19997;51.274;22.506;2023-05-16T07:02:31;16.80;95.30
33655;DHT22;19997;51.274;22.506;2023-05-16T07:04:58;16.80;94.60
33655;DHT22;19997;51.274;22.506;2023-05-16T07:07:27;16.90;93.90
33655;DHT22;19997;51.274;22.506;2023-05-16T07:09:54;16.90;93.80
33655;DHT22;19997;51.274;22.506;2023-05-16T07:12:21;17.00;92.60
33655;DHT22;19997;51.274;22.506;2023-05-16T07:14:48;17.10;92.60
33655;DHT22;19997;51.274;22.506;2023-05-16T07:17:16;17.10;92.30
33655;DHT22;19997;51.274;22.506;2023-05-16T07:19:43;17.20;91.20
33655;DHT22;19997;51.274;22.506;2023-05-16T07:22:10;17.30;91.40
33655;DHT22;19997;51.274;22.506;2023-05-16T07:24:39;17.40;91.90
33655;DHT22;19997;51.274;22.506;2023-05-16T07:27:06;17.50;92.40
33655;DHT22;19997;51.274;22.506;2023-05-16T07:29:33;17.70;92.50
33655;DHT22;19997;51.274;22.506;2023-05-16T07:32:00;17.80;91.30
33655;DHT22;19997;51.274;22.506;2023-05-16T07:34:28;18.00;90.60
33655;DHT22;19997;51.274;22.506;2023-05-16T07:36:55;18.10;90.30
33655;DHT22;19997;51.274;22.506;2023-05-16T07:39:23;18.20;90.00
33655;DHT22;19997;51.274;22.506;2023-05-16T07:41:51;18.30;89.20
33655;DHT22;19997;51.274;22.506;2023-05-16T07:44:19;18.30;86.70
33655;DHT22;19997;51.274;22.506;2023-05-16T07:46:46;18.30;86.30
33655;DHT22;19997;51.274;22.506;2023-05-16T07:49:13;18.30;86.10
33655;DHT22;19997;51.274;22.506;2023-05-16T07:51:40;18.40;84.60
33655;DHT22;19997;51.274;22.506;2023-05-16T07:54:07;18.40;83.20
33655;DHT22;19997;51.274;22.506;2023-05-16T07:56:34;18.30;82.90
33655;DHT22;19997;51.274;22.506;2023-05-16T07:59:03;18.30;83.20
33655;DHT22;19997;51.274;22.506;2023-05-16T08:01:31;18.40;83.40
33655;DHT22;19997;51.274;22.506;2023-05-16T08:03:58;18.50;82.30
33655;DHT22;19997;51.274;22.506;2023-05-16T08:06:27;18.50;80.60
33655;DHT22;19997;51.274;22.506;2023-05-16T08:08:54;18.60;80.10
33655;DHT22;19997;51.274;22.506;2023-05-16T08:11:21;18.70;80.50
33655;DHT22;19997;51.274;22.506;2023-05-16T08:13:49;18.80;81.00
33655;DHT22;19997;51.274;22.506;2023-05-16T08:16:17;18.90;81.30
33655;DHT22;19997;51.274;22.506;2023-05-16T08:18:45;19.00;81.40
33655;DHT22;19997;51.274;22.506;2023-05-16T08:21:13;19.20;80.40
33655;DHT22;19997;51.274;22.506;2023-05-16T08:23:41;19.30;79.20
33655;DHT22;19997;51.274;22.506;2023-05-16T08:26:09;19.40;78.60
33655;DHT22;19997;51.274;22.506;2023-05-16T08:28:36;19.50;77.60
33655;DHT22;19997;51.274;22.506;2023-05-16T08:31:03;19.60;78.20
33655;DHT22;19997;51.274;22.506;2023-05-16T08:33:33;19.70;76.20
33655;DHT22;19997;51.274;22.506;2023-05-16T08:36:01;19.70;76.60
33655;DHT22;19997;51.274;22.506;2023-05-16T08:38:28;19.80;77.00
33655;DHT22;19997;51.274;22.506;2023-05-16T08:40:55;19.90;75.40
33655;DHT22;19997;51.274;22.506;2023-05-16T08:43:23;19.90;74.30
33655;DHT22;19997;51.274;22.506;2023-05-16T08:45:50;19.90;74.90
33655;DHT22;19997;51.274;22.506;2023-05-16T08:48:19;20.00;75.40
33655;DHT22;19997;51.274;22.506;2023-05-16T08:50:50;20.20;75.10
33655;DHT22;19997;51.274;22.506;2023-05-16T08:53:28;20.40;74.50
33655;DHT22;19997;51.274;22.506;2023-05-16T08:55:58;20.50;73.80
33655;DHT22;19997;51.274;22.506;2023-05-16T08:58:26;20.70;72.90
33655;DHT22;19997;51.274;22.506;2023-05-16T09:00:55;20.80;71.60
33655;DHT22;19997;51.274;22.506;2023-05-16T09:03:23;20.90;72.20
33655;DHT22;19997;51.274;22.506;2023-05-16T09:05:54;21.10;71.40
33655;DHT22;19997;51.274;22.506;2023-05-16T09:08:22;21.20;70.80
33655;DHT22;19997;51.274;22.506;2023-05-16T09:10:51;21.30;68.70
33655;DHT22;19997;51.274;22.506;2023-05-16T09:13:18;21.30;69.30
33655;DHT22;19997;51.274;22.506;2023-05-16T09:15:45;21.30;69.60
33655;DHT22;19997;51.274;22.506;2023-05-16T09:18:32;21.40;69.90
33655;DHT22;19997;51.274;22.506;2023-05-16T09:21:02;21.50;69.90
33655;DHT22;19997;51.274;22.506;2023-05-16T09:23:29;21.50;67.40
33655;DHT22;19997;51.274;22.506;2023-05-16T09:25:59;21.50;66.30
33655;DHT22;19997;51.274;22.506;2023-05-16T09:28:27;21.30;66.70
33655;DHT22;19997;51.274;22.506;2023-05-16T09:30:57;21.20;67.50
33655;DHT22;19997;51.274;22.506;2023-05-16T09:33:27;21.10;68.00
33655;DHT22;19997;51.274;22.506;2023-05-16T09:35:55;21.20;68.70
33655;DHT22;19997;51.274;22.506;2023-05-16T09:38:25;21.30;68.70
33655;DHT22;19997;51.274;22.506;2023-05-16T09:40:52;21.50;68.60
33655;DHT22;19997;51.274;22.506;2023-05-16T09:43:24;21.60;68.30
33655;DHT22;19997;51.274;22.506;2023-05-16T09:45:51;21.80;67.80
33655;DHT22;19997;51.274;22.506;2023-05-16T09:48:20;21.90;67.70
33655;DHT22;19997;51.274;22.506;2023-05-16T09:50:50;21.90;67.00
33655;DHT22;19997;51.274;22.506;2023-05-16T09:53:30;22.00;64.90
33655;DHT22;19997;51.274;22.506;2023-05-16T09:56:03;22.00;66.20
33655;DHT22;19997;51.274;22.506;2023-05-16T09:58:33;22.30;66.70
33655;DHT22;19997;51.274;22.506;2023-05-16T10:01:05;22.50;66.40
33655;DHT22;19997;51.274;22.506;2023-05-16T10:03:36;22.70;66.30
33655;DHT22;19997;51.274;22.506;2023-05-16T10:06:04;22.80;63.90
33655;DHT22;19997;51.274;22.506;2023-05-16T10:08:37;22.80;63.20
33655;DHT22;19997;51.274;22.506;2023-05-16T10:11:06;22.80;64.30
33655;DHT22;19997;51.274;22.506;2023-05-16T10:13:34;22.80;64.50
33655;DHT22;19997;51.274;22.506;2023-05-16T10:16:06;22.90;63.30
33655;DHT22;19997;51.274;22.506;2023-05-16T10:18:37;22.90;62.50
33655;DHT22;19997;51.274;22.506;2023-05-16T10:21:07;22.80;63.40
33655;DHT22;19997;51.274;22.506;2023-05-16T10:23:37;22.80;64.20
33655;DHT22;19997;51.274;22.506;2023-05-16T10:26:08;22.80;64.00
33655;DHT22;19997;51.274;22.506;2023-05-16T10:28:35;22.80;63.80
33655;DHT22;19997;51.274;22.506;2023-05-16T10:31:03;22.60;64.00
33655;DHT22;19997;51.274;22.506;2023-05-16T10:33:31;22.60;64.70
33655;DHT22;19997;51.274;22.506;2023-05-16T10:35:59;22.70;63.80
33655;DHT22;19997;51.274;22.506;2023-05-16T10:38:29;22.60;63.90
33655;DHT22;19997;51.274;22.506;2023-05-16T10:40:58;22.60;63.50
33655;DHT22;19997;51.274;22.506;2023-05-16T10:43:26;22.60;63.50
33655;DHT22;19997;51.274;22.506;2023-05-16T10:45:56;22.50;63.20
33655;DHT22;19997;51.274;22.506;2023-05-16T10:48:33;22.50;63.80
33655;DHT22;19997;51.274;22.506;2023-05-16T10:51:02;22.70;63.70
33655;DHT22;19997;51.274;22.506;2023-05-16T10:53:31;22.80;63.60
33655;DHT22;19997;51.274;22.506;2023-05-16T10:56:08;23.00;63.10
33655;DHT22;19997;51.274;22.506;2023-05-16T10:58:43;23.10;61.80
33655;DHT22;19997;51.274;22.506;2023-05-16T11:01:20;23.20;61.40
33655;DHT22;19997;51.274;22.506;2023-05-16T11:04:08;23.20;60.80
33655;DHT22;19997;51.274;22.506;2023-05-16T11:06:49;23.20;60.60
33655;DHT22;19997;51.274;22.506;2023-05-16T11:09:22;23.20;60.60
33655;DHT22;19997;51.274;22.506;2023-05-16T11:11:58;23.40;60.80
33655;DHT22;19997;51.274;22.506;2023-05-16T11:14:27;23.50;61.30
33655;DHT22;19997;51.274;22.506;2023-05-16T11:17:01;23.70;61.40
33655;DHT22;19997;51.274;22.506;2023-05-16T11:19:34;23.80;60.30
33655;DHT22;19997;51.274;22.506;2023-05-16T11:22:05;23.90;59.70
33655;DHT22;19997;51.274;22.506;2023-05-16T11:24:38;23.90;58.10
33655;DHT22;19997;51.274;22.506;2023-05-16T11:27:07;24.00;58.90
33655;DHT22;19997;51.274;22.506;2023-05-16T11:29:36;24.10;58.80
33655;DHT22;19997;51.274;22.506;2023-05-16T11:32:04;24.20;58.70
33655;DHT22;19997;51.274;22.506;2023-05-16T11:34:35;24.20;58.10
33655;DHT22;19997;51.274;22.506;2023-05-16T11:37:04;24.20;58.70
33655;DHT22;19997;51.274;22.506;2023-05-16T11:39:31;24.30;58.00
33655;DHT22;19997;51.274;22.506;2023-05-16T11:41:59;24.40;58.00
33655;DHT22;19997;51.274;22.506;2023-05-16T11:44:28;24.40;57.20
33655;DHT22;19997;51.274;22.506;2023-05-16T11:46:55;24.40;57.60
33655;DHT22;19997;51.274;22.506;2023-05-16T11:49:22;24.60;57.60
33655;DHT22;19997;51.274;22.506;2023-05-16T11:51:53;24.70;56.90
33655;DHT22;19997;51.274;22.506;2023-05-16T11:54:22;24.60;56.70
33655;DHT22;19997;51.274;22.506;2023-05-16T11:56:50;24.40;57.10
33655;DHT22;19997;51.274;22.506;2023-05-16T11:59:18;24.50;57.50
33655;DHT22;19997;51.274;22.506;2023-05-16T12:01:49;24.60;57.20
33655;DHT22;19997;51.274;22.506;2023-05-16T12:04:17;24.90;56.20
33655;DHT22;19997;51.274;22.506;2023-05-16T12:06:57;24.90;55.40
33655;DHT22;19997;51.274;22.506;2023-05-16T12:09:25;24.80;55.70
33655;DHT22;19997;51.274;22.506;2023-05-16T12:11:52;24.70;56.50
33655;DHT22;19997;51.274;22.506;2023-05-16T12:14:19;24.80;56.80
33655;DHT22;19997;51.274;22.506;2023-05-16T12:16:48;24.80;56.80
33655;DHT22;19997;51.274;22.506;2023-05-16T12:19:16;25.00;56.60
33655;DHT22;19997;51.274;22.506;2023-05-16T12:21:43;25.10;56.30
33655;DHT22;19997;51.274;22.506;2023-05-16T12:24:11;25.20;55.60
33655;DHT22;19997;51.274;22.506;2023-05-16T12:26:39;25.30;55.40
33655;DHT22;19997;51.274;22.506;2023-05-16T12:29:08;25.20;55.40
33655;DHT22;19997;51.274;22.506;2023-05-16T12:31:37;25.10;55.10
33655;DHT22;19997;51.274;22.506;2023-05-16T12:34:16;25.10;55.40
33655;DHT22;19997;51.274;22.506;2023-05-16T12:36:43;25.00;54.00
33655;DHT22;19997;51.274;22.506;2023-05-16T12:39:11;24.90;54.00
33655;DHT22;19997;51.274;22.506;2023-05-16T12:41:40;24.80;54.00
33655;DHT22;19997;51.274;22.506;2023-05-16T12:44:12;24.90;54.50
33655;DHT22;19997;51.274;22.506;2023-05-16T12:46:43;24.90;53.90
33655;DHT22;19997;51.274;22.506;2023-05-16T12:49:11;25.00;54.60
33655;DHT22;19997;51.274;22.506;2023-05-16T12:51:39;25.10;54.20
33655;DHT22;19997;51.274;22.506;2023-05-16T12:54:08;25.20;54.00
33655;DHT22;19997;51.274;22.506;2023-05-16T12:56:39;25.30;53.90
33655;DHT22;19997;51.274;22.506;2023-05-16T12:59:07;25.30;53.90
33655;DHT22;19997;51.274;22.506;2023-05-16T13:01:34;25.30;53.50
33655;DHT22;19997;51.274;22.506;2023-05-16T13:04:08;25.20;53.50
33655;DHT22;19997;51.274;22.506;2023-05-16T13:06:41;24.90;53.80
33655;DHT22;19997;51.274;22.506;2023-05-16T13:09:08;24.80;54.40
33655;DHT22;19997;51.274;22.506;2023-05-16T13:11:36;24.70;54.30
33655;DHT22;19997;51.274;22.506;2023-05-16T13:14:03;24.60;54.70
33655;DHT22;19997;51.274;22.506;2023-05-16T13:16:30;24.60;55.00
33655;DHT22;19997;51.274;22.506;2023-05-16T13:18:57;24.80;54.80
33655;DHT22;19997;51.274;22.506;2023-05-16T13:21:25;24.90;54.70
33655;DHT22;19997;51.274;22.506;2023-05-16T13:23:56;25.10;53.70
33655;DHT22;19997;51.274;22.506;2023-05-16T13:26:23;25.20;53.60
33655;DHT22;19997;51.274;22.506;2023-05-16T13:28:50;25.40;53.10
33655;DHT22;19997;51.274;22.506;2023-05-16T13:31:18;25.50;53.00
33655;DHT22;19997;51.274;22.506;2023-05-16T13:33:46;25.60;52.80
33655;DHT22;19997;51.274;22.506;2023-05-16T13:36:13;25.60;52.80
33655;DHT22;19997;51.274;22.506;2023-05-16T13:38:40;25.60;53.20
33655;DHT22;19997;51.274;22.506;2023-05-16T13:41:09;25.70;53.10
33655;DHT22;19997;51.274;22.506;2023-05-16T13:43:36;25.80;52.30
33655;DHT22;19997;51.274;22.506;2023-05-16T13:46:03;25.80;52.10
33655;DHT22;19997;51.274;22.506;2023-05-16T13:48:30;25.70;52.40
33655;DHT22;19997;51.274;22.506;2023-05-16T13:50:57;25.60;52.90
33655;DHT22;19997;51.274;22.506;2023-05-16T13:53:24;25.60;52.30
33655;DHT22;19997;51.274;22.506;2023-05-16T13:55:51;25.50;52.30
33655;DHT22;19997;51.274;22.506;2023-05-16T13:58:20;25.60;52.70
33655;DHT22;19997;51.274;22.506;2023-05-16T14:00:47;25.70;52.90
33655;DHT22;19997;51.274;22.506;2023-05-16T14:03:15;25.90;52.80
33655;DHT22;19997;51.274;22.506;2023-05-16T14:05:42;25.90;52.30
33655;DHT22;19997;51.274;22.506;2023-05-16T14:08:09;25.80;51.70
33655;DHT22;19997;51.274;22.506;2023-05-16T14:10:36;25.70;52.10
33655;DHT22;19997;51.274;22.506;2023-05-16T14:13:03;25.60;52.50
33655;DHT22;19997;51.274;22.506;2023-05-16T14:15:32;25.50;52.70
33655;DHT22;19997;51.274;22.506;2023-05-16T14:17:59;25.60;52.90
33655;DHT22;19997;51.274;22.506;2023-05-16T14:20:26;25.70;53.00
33655;DHT22;19997;51.274;22.506;2023-05-16T14:22:53;26.00;52.90
33655;DHT22;19997;51.274;22.506;2023-05-16T14:25:21;26.20;53.00
33655;DHT22;19997;51.274;22.506;2023-05-16T14:27:48;26.40;52.90
33655;DHT22;19997;51.274;22.506;2023-05-16T14:30:16;26.60;52.60
33655;DHT22;19997;51.274;22.506;2023-05-16T14:32:45;26.80;52.50
33655;DHT22;19997;51.274;22.506;2023-05-16T14:35:12;27.00;51.80
33655;DHT22;19997;51.274;22.506;2023-05-16T14:37:39;27.00;51.80
33655;DHT22;19997;51.274;22.506;2023-05-16T14:40:07;27.00;52.10
33655;DHT22;19997;51.274;22.506;2023-05-16T14:42:34;26.90;52.10
33655;DHT22;19997;51.274;22.506;2023-05-16T14:45:02;27.00;52.10
33655;DHT22;19997;51.274;22.506;2023-05-16T14:47:31;27.00;52.00
33655;DHT22;19997;51.274;22.506;2023-05-16T14:50:00;26.90;52.00
33655;DHT22;19997;51.274;22.506;2023-05-16T14:52:28;26.80;52.00
33655;DHT22;19997;51.274;22.506;2023-05-16T14:54:55;26.60;52.20
33655;DHT22;19997;51.274;22.506;2023-05-16T14:57:23;26.50;52.30
33655;DHT22;19997;51.274;22.506;2023-05-16T14:59:50;26.30;51.90
33655;DHT22;19997;51.274;22.506;2023-05-16T15:02:18;26.20;52.30
33655;DHT22;19997;51.274;22.506;2023-05-16T15:04:45;26.10;52.40
33655;DHT22;19997;51.274;22.506;2023-05-16T15:07:17;26.00;52.80
33655;DHT22;19997;51.274;22.506;2023-05-16T15:09:45;25.90;53.00
33655;DHT22;19997;51.274;22.506;2023-05-16T15:12:12;25.80;53.00
33655;DHT22;19997;51.274;22.506;2023-05-16T15:14:40;25.70;53.10
33655;DHT22;19997;51.274;22.506;2023-05-16T15:17:07;25.60;53.20
33655;DHT22;19997;51.274;22.506;2023-05-16T15:19:34;25.60;53.30
33655;DHT22;19997;51.274;22.506;2023-05-16T15:22:01;25.50;53.30
33655;DHT22;19997;51.274;22.506;2023-05-16T15:24:33;25.40;53.60